createdAt,value
2023-02-19T00:00:32.929Z,18.73
2023-02-19T00:03:35.255Z,11.60
2023-02-19T00:06:37.343Z,13.70
2023-02-19T00:09:39.410Z,12.18
2023-02-19T00:12:41.399Z,10.90
2023-02-19T00:15:43.370Z,11.25
2023-02-19T00:18:45.737Z,9.82
2023-02-19T00:21:48.469Z,12.93
2023-02-19T00:24:50.489Z,8.07
2023-02-19T00:27:52.571Z,10.07
2023-02-19T00:30:54.746Z,9.63
2023-02-19T00:33:57.725Z,9.05
2023-02-19T00:36:59.746Z,9.30
2023-02-19T00:40:01.745Z,7.47
2023-02-19T00:43:03.832Z,7.97
2023-02-19T00:46:05.954Z,5.40
2023-02-19T00:49:08.715Z,6.17
2023-02-19T00:52:10.725Z,6.10
2023-02-19T00:55:12.706Z,4.75
2023-02-19T00:58:14.732Z,3.72
2023-02-19T01:01:16.974Z,4.27
2023-02-19T01:04:19.909Z,4.30
2023-02-19T01:07:21.939Z,2.80
2023-02-19T01:10:24.552Z,4.22
2023-02-19T01:13:26.672Z,3.80
2023-02-19T01:16:28.762Z,5.78
2023-02-19T01:19:30.926Z,5.10
2023-02-19T01:22:32.949Z,4.20
2023-02-19T01:25:34.974Z,3.80
2023-02-19T01:28:37.175Z,4.95
2023-02-19T01:31:39.475Z,4.95
2023-02-19T01:34:41.651Z,4.67
2023-02-19T01:37:43.607Z,5.22
2023-02-19T01:40:45.585Z,4.00
2023-02-19T01:43:55.811Z,4.10
2023-02-19T01:46:58.838Z,5.20
2023-02-19T01:50:01.162Z,4.18
2023-02-19T01:53:05.476Z,4.85
2023-02-19T01:56:08.366Z,3.03
2023-02-19T01:59:10.780Z,3.38
2023-02-19T02:02:12.902Z,4.18
2023-02-19T02:05:38.189Z,5.00
2023-02-19T02:08:59.071Z,6.47
2023-02-19T02:12:01.140Z,5.00
2023-02-19T02:15:03.209Z,3.22
2023-02-19T02:18:11.417Z,3.47
2023-02-19T02:21:33.749Z,2.90
2023-02-19T02:24:44.958Z,4.35
2023-02-19T02:28:02.335Z,4.32
2023-02-19T02:31:17.290Z,3.55
2023-02-19T02:34:23.516Z,4.07
2023-02-19T02:37:28.170Z,6.43
2023-02-19T02:40:31.400Z,4.20
2023-02-19T02:43:35.217Z,5.93
2023-02-19T02:46:41.696Z,5.05
2023-02-19T02:50:04.437Z,5.07
2023-02-19T02:53:35.184Z,4.85
2023-02-19T02:56:37.732Z,5.45
2023-02-19T02:59:41.739Z,5.68
2023-02-19T03:02:44.066Z,6.65
2023-02-19T03:05:52.902Z,6.20
2023-02-19T03:09:09.830Z,6.20
2023-02-19T03:12:33.321Z,6.30
2023-02-19T03:16:00.872Z,5.35
2023-02-19T03:19:19.211Z,5.53
2023-02-19T03:22:34.391Z,3.92
2023-02-19T03:25:56.460Z,5.32
2023-02-19T03:29:26.164Z,5.67
2023-02-19T03:32:42.390Z,4.45
2023-02-19T03:35:46.558Z,4.10
2023-02-19T03:38:52.536Z,4.20
2023-02-19T03:42:13.990Z,4.45
2023-02-19T03:45:31.165Z,5.32
2023-02-19T03:48:36.042Z,4.53
2023-02-19T03:51:50.510Z,4.17
2023-02-19T03:54:52.570Z,4.68
2023-02-19T03:57:57.583Z,3.97
2023-02-19T04:01:04.318Z,4.63
2023-02-19T04:04:09.389Z,5.57
2023-02-19T04:07:11.780Z,4.93
2023-02-19T04:10:17.562Z,4.38
2023-02-19T04:13:32.933Z,4.18
2023-02-19T04:16:37.257Z,6.10
2023-02-19T04:19:40.421Z,3.90
2023-02-19T04:22:42.595Z,3.45
2023-02-19T04:25:46.999Z,4.90
2023-02-19T04:28:49.023Z,4.85
2023-02-19T04:31:51.115Z,5.13
2023-02-19T04:34:54.400Z,7.72
2023-02-19T04:37:56.474Z,8.37
2023-02-19T04:40:58.462Z,4.03
2023-02-19T04:44:00.496Z,4.70
2023-02-19T04:47:02.513Z,6.47
2023-02-19T04:50:04.671Z,5.77
2023-02-19T04:53:07.067Z,8.00
2023-02-19T04:56:10.360Z,5.45
2023-02-19T04:59:12.718Z,4.38
2023-02-19T05:02:14.773Z,4.00
2023-02-19T05:05:16.863Z,4.05
2023-02-19T05:08:19.408Z,4.30
2023-02-19T05:11:23.798Z,4.53
2023-02-19T05:14:25.758Z,4.75
2023-02-19T05:17:27.770Z,5.90
2023-02-19T05:20:29.780Z,6.10
2023-02-19T05:23:31.796Z,3.37
2023-02-19T05:26:33.894Z,6.75
2023-02-19T05:29:35.872Z,2.92
2023-02-19T05:32:37.990Z,3.22
2023-02-19T05:35:40.932Z,4.32
2023-02-19T05:38:43.202Z,4.88
2023-02-19T05:41:45.235Z,10.98
2023-02-19T05:44:47.216Z,7.43
2023-02-19T05:47:49.390Z,3.78
2023-02-19T05:50:51.386Z,4.20
2023-02-19T05:53:53.666Z,4.32
2023-02-19T05:56:55.763Z,5.27
2023-02-19T05:59:57.751Z,6.60
2023-02-19T06:02:59.931Z,5.40
2023-02-19T06:06:03.473Z,9.20
2023-02-19T06:09:05.586Z,19.05
2023-02-19T06:12:08.209Z,16.90
2023-02-19T06:15:10.180Z,16.65
2023-02-19T06:18:12.170Z,19.23
2023-02-19T06:21:15.080Z,22.02
2023-02-19T06:24:17.175Z,26.23
2023-02-19T06:27:19.422Z,28.23
2023-02-19T06:30:21.518Z,27.98
2023-02-19T06:33:23.510Z,32.10
2023-02-19T06:36:25.564Z,29.70
2023-02-19T06:39:27.976Z,31.60
2023-02-19T06:42:33.304Z,29.02
2023-02-19T06:45:35.415Z,35.40
2023-02-19T06:48:38.923Z,34.30
2023-02-19T06:51:41.427Z,35.03
2023-02-19T06:54:43.402Z,32.50
2023-02-19T06:57:45.418Z,29.83
2023-02-19T07:00:47.499Z,31.50
2023-02-19T07:03:49.736Z,32.78
2023-02-19T07:06:51.781Z,34.67
2023-02-19T07:09:53.802Z,32.53
2023-02-19T07:12:55.799Z,37.10
2023-02-19T07:15:59.514Z,36.55
2023-02-19T07:19:01.605Z,36.17
2023-02-19T07:22:03.654Z,33.40
2023-02-19T07:25:05.771Z,36.17
2023-02-19T07:28:07.787Z,32.42
2023-02-19T07:31:10.129Z,32.93
2023-02-19T07:34:12.566Z,35.33
2023-02-19T07:37:14.514Z,31.48
2023-02-19T07:40:16.551Z,33.25
2023-02-19T07:43:19.269Z,38.55
2023-02-19T07:46:22.108Z,33.97
2023-02-19T07:49:24.088Z,35.72
2023-02-19T07:52:26.247Z,35.33
2023-02-19T07:55:28.317Z,34.75
2023-02-19T07:58:30.675Z,34.45
2023-02-19T08:01:51.126Z,30.52
2023-02-19T08:04:53.138Z,32.10
2023-02-19T08:07:55.194Z,28.85
2023-02-19T08:11:18.185Z,29.20
2023-02-19T08:14:20.238Z,29.90
2023-02-19T08:17:22.284Z,26.52
2023-02-19T08:20:24.373Z,27.70
2023-02-19T08:23:26.756Z,28.33
2023-02-19T08:26:28.742Z,23.57
2023-02-19T08:29:30.788Z,27.27
2023-02-19T08:32:32.851Z,29.50
2023-02-19T08:35:38.051Z,25.90
2023-02-19T08:38:40.060Z,24.73
2023-02-19T08:41:42.179Z,28.05
2023-02-19T08:44:44.206Z,26.67
2023-02-19T08:47:46.302Z,28.63
2023-02-19T08:50:55.094Z,24.77
2023-02-19T08:53:57.160Z,26.13
2023-02-19T08:56:59.144Z,27.08
2023-02-19T09:00:01.148Z,24.37
2023-02-19T09:03:03.146Z,19.73
2023-02-19T09:06:05.310Z,24.60
2023-02-19T09:09:07.364Z,26.90
2023-02-19T09:12:10.983Z,25.83
2023-02-19T09:15:13.011Z,29.35
2023-02-19T09:18:15.092Z,25.70
2023-02-19T09:21:17.091Z,26.25
2023-02-19T09:24:19.121Z,30.40
2023-02-19T09:27:21.150Z,29.77
2023-02-19T09:30:23.436Z,29.65
2023-02-19T09:33:25.582Z,30.05
2023-02-19T09:36:27.687Z,25.83
2023-02-19T09:39:29.869Z,26.30
2023-02-19T09:42:32.789Z,24.23
2023-02-19T09:45:35.171Z,26.05
2023-02-19T09:48:37.443Z,28.30
2023-02-19T09:51:41.470Z,25.10
2023-02-19T09:54:45.037Z,26.38
2023-02-19T09:57:47.212Z,29.13
2023-02-19T10:00:49.742Z,29.27
2023-02-19T10:03:51.765Z,30.58
2023-02-19T10:06:59.035Z,29.13
2023-02-19T10:10:02.910Z,27.73
2023-02-19T10:13:19.878Z,30.50
2023-02-19T10:16:24.952Z,28.40
2023-02-19T10:19:27.091Z,26.67
2023-02-19T10:22:30.738Z,25.88
2023-02-19T10:25:34.767Z,24.23
2023-02-19T10:28:36.804Z,28.57
2023-02-19T10:31:38.941Z,28.67
2023-02-19T10:34:40.949Z,23.67
2023-02-19T10:37:49.889Z,21.70
2023-02-19T10:41:08.655Z,19.83
2023-02-19T10:44:20.906Z,23.77
2023-02-19T10:47:23.933Z,25.13
2023-02-19T10:50:32.914Z,19.88
2023-02-19T10:53:42.599Z,21.13
2023-02-19T10:56:44.609Z,20.43
2023-02-19T10:59:50.929Z,25.05
2023-02-19T11:03:18.996Z,23.55
2023-02-19T11:06:21.902Z,23.13
2023-02-19T11:09:27.029Z,26.47
2023-02-19T11:12:33.784Z,24.00
2023-02-19T11:15:36.844Z,26.08
2023-02-19T11:18:40.945Z,31.38
2023-02-19T11:21:43.037Z,29.13
2023-02-19T11:24:48.661Z,30.00
2023-02-19T11:27:54.603Z,29.00
2023-02-19T11:31:12.641Z,26.70
2023-02-19T11:34:14.836Z,29.63
2023-02-19T11:37:17.887Z,28.25
2023-02-19T11:40:22.320Z,24.00
2023-02-19T11:43:30.552Z,25.67
2023-02-19T11:46:39.237Z,21.15
2023-02-19T11:49:44.148Z,16.95
2023-02-19T11:52:49.243Z,16.23
2023-02-19T11:56:09.784Z,12.30
2023-02-19T11:59:14.524Z,13.47
2023-02-19T12:02:28.552Z,11.80
2023-02-19T12:05:52.619Z,10.38
2023-02-19T12:09:06.763Z,12.48
2023-02-19T12:12:08.715Z,12.87
2023-02-19T12:15:29.508Z,9.73
2023-02-19T12:18:43.676Z,9.68
2023-02-19T12:22:00.621Z,8.43
2023-02-19T12:25:17.907Z,7.85
2023-02-19T12:28:33.191Z,7.60
2023-02-19T12:31:53.811Z,7.03
2023-02-19T12:35:10.844Z,7.82
2023-02-19T12:38:19.081Z,8.93
2023-02-19T12:41:36.285Z,9.63
2023-02-19T12:44:44.042Z,7.67
2023-02-19T12:47:52.345Z,9.63
2023-02-19T12:50:58.978Z,11.80
2023-02-19T12:54:07.293Z,9.35
2023-02-19T12:57:23.193Z,9.48
2023-02-19T13:00:28.768Z,8.50
2023-02-19T13:03:34.775Z,10.07
2023-02-19T13:06:41.481Z,11.35
2023-02-19T13:09:49.276Z,12.13
2023-02-19T13:12:52.022Z,9.23
2023-02-19T13:15:56.818Z,9.53
2023-02-19T13:19:02.848Z,7.60
2023-02-19T13:22:36.893Z,11.02
2023-02-19T13:25:57.615Z,9.07
2023-02-19T13:29:00.320Z,5.28
2023-02-19T13:32:02.461Z,4.07
2023-02-19T13:35:11.646Z,4.53
2023-02-19T13:38:13.963Z,3.10
2023-02-19T13:41:36.218Z,4.25
2023-02-19T13:44:40.170Z,4.75
2023-02-19T13:47:49.693Z,2.37
2023-02-19T13:51:12.139Z,6.13
2023-02-19T13:54:20.007Z,11.52
2023-02-19T13:57:23.547Z,4.43
2023-02-19T14:00:49.314Z,4.22
2023-02-19T14:03:55.635Z,2.83
2023-02-19T14:07:03.892Z,2.57
2023-02-19T14:10:11.156Z,1.58
2023-02-19T14:13:33.106Z,2.08
2023-02-19T14:16:35.152Z,2.80
2023-02-19T14:19:43.041Z,1.70
2023-02-19T14:22:47.857Z,1.90
2023-02-19T14:25:54.697Z,3.80
2023-02-19T14:28:56.930Z,2.15
2023-02-19T14:32:01.109Z,2.30
2023-02-19T14:35:03.994Z,2.60
2023-02-19T14:38:06.565Z,1.97
2023-02-19T14:41:11.063Z,1.20
2023-02-19T14:44:18.275Z,2.83
2023-02-19T14:47:21.920Z,1.95
2023-02-19T14:50:29.542Z,5.37
2023-02-19T14:53:32.214Z,3.40
2023-02-19T14:56:34.888Z,4.32
2023-02-19T14:59:36.867Z,5.07
2023-02-19T15:02:42.225Z,3.85
2023-02-19T15:05:45.372Z,3.92
2023-02-19T15:08:48.687Z,3.45
2023-02-19T15:11:51.249Z,6.37
2023-02-19T15:14:54.697Z,3.15
2023-02-19T15:17:57.748Z,3.53
2023-02-19T15:21:01.533Z,4.13
2023-02-19T15:24:05.092Z,3.67
2023-02-19T15:27:07.110Z,3.70
2023-02-19T15:30:19.236Z,3.38
2023-02-19T15:33:22.229Z,6.28
2023-02-19T15:36:31.202Z,3.37
2023-02-19T15:39:39.530Z,4.22
2023-02-19T15:42:44.239Z,4.00
2023-02-19T15:45:47.119Z,3.78
2023-02-19T15:48:52.462Z,3.50
2023-02-19T15:51:57.240Z,3.92
2023-02-19T15:55:12.306Z,8.90
2023-02-19T15:58:20.175Z,6.95
2023-02-19T16:01:25.360Z,3.33
2023-02-19T16:04:27.489Z,5.82
2023-02-19T16:07:32.022Z,6.35
2023-02-19T16:10:34.222Z,6.63
2023-02-19T16:13:36.219Z,6.37
2023-02-19T16:16:39.429Z,28.02
2023-02-19T16:19:58.150Z,30.23
2023-02-19T16:23:05.590Z,8.88
2023-02-19T16:26:07.736Z,4.47
2023-02-19T16:29:18.846Z,8.35
2023-02-19T16:32:20.940Z,5.35
2023-02-19T16:35:36.842Z,7.43
2023-02-19T16:38:39.520Z,12.50
2023-02-19T16:41:47.278Z,7.20
2023-02-19T16:44:49.365Z,9.07
2023-02-19T16:47:51.479Z,6.20
2023-02-19T16:50:53.555Z,4.68
2023-02-19T16:53:55.572Z,6.47
2023-02-19T16:56:57.563Z,5.45
2023-02-19T16:59:59.544Z,4.75
2023-02-19T17:03:08.858Z,3.85
2023-02-19T17:06:11.372Z,7.65
2023-02-19T17:09:13.386Z,5.67
2023-02-19T17:12:16.538Z,3.45
2023-02-19T17:15:18.841Z,4.57
2023-02-19T17:18:20.810Z,4.20
2023-02-19T17:21:23.084Z,3.95
2023-02-19T17:24:25.046Z,7.28
2023-02-19T17:27:27.091Z,4.13
2023-02-19T17:30:30.985Z,3.57
2023-02-19T17:33:33.048Z,4.15
2023-02-19T17:36:35.087Z,3.22
2023-02-19T17:39:37.159Z,4.00
2023-02-19T17:42:39.163Z,3.72
2023-02-19T17:45:41.348Z,12.80
2023-02-19T17:48:43.482Z,17.35
2023-02-19T17:51:45.480Z,13.03
2023-02-19T17:54:47.562Z,6.20
2023-02-19T17:57:50.309Z,4.07
2023-02-19T18:00:52.458Z,4.28
2023-02-19T18:03:54.554Z,5.27
2023-02-19T18:06:56.577Z,2.95
2023-02-19T18:09:58.578Z,2.92
2023-02-19T18:13:00.634Z,3.92
2023-02-19T18:16:02.653Z,3.70
2023-02-19T18:19:07.247Z,7.35
2023-02-19T18:22:09.359Z,6.43
2023-02-19T18:25:11.747Z,5.70
2023-02-19T18:28:14.979Z,5.83
2023-02-19T18:31:17.172Z,2.75
2023-02-19T18:34:19.519Z,2.38
2023-02-19T18:37:21.977Z,3.55
2023-02-19T18:40:26.030Z,6.73
2023-02-19T18:43:28.049Z,3.03
2023-02-19T18:46:32.247Z,2.45
2023-02-19T18:49:34.685Z,3.28
2023-02-19T18:52:36.752Z,2.78
2023-02-19T18:55:38.771Z,2.63
2023-02-19T18:58:40.766Z,2.33
2023-02-19T19:01:43.274Z,4.90
2023-02-19T19:04:49.300Z,4.43
2023-02-19T19:07:52.629Z,3.67
2023-02-19T19:10:54.681Z,3.65
2023-02-19T19:13:56.983Z,3.90
2023-02-19T19:16:59.108Z,3.65
2023-02-19T19:20:01.092Z,3.30
2023-02-19T19:23:04.943Z,4.10
2023-02-19T19:26:07.248Z,2.35
2023-02-19T19:29:09.319Z,3.35
2023-02-19T19:32:12.291Z,4.65
2023-02-19T19:35:15.724Z,4.10
2023-02-19T19:38:17.732Z,4.35
2023-02-19T19:41:20.692Z,5.35
2023-02-19T19:44:22.931Z,4.90
2023-02-19T19:47:24.945Z,8.15
2023-02-19T19:50:27.078Z,8.40
2023-02-19T19:53:29.109Z,16.45
2023-02-19T19:56:31.468Z,9.50
2023-02-19T19:59:33.470Z,7.90
2023-02-19T20:02:35.505Z,4.05
2023-02-19T20:05:37.483Z,3.53
2023-02-19T20:08:39.505Z,3.55
2023-02-19T20:11:45.622Z,9.10
2023-02-19T20:14:47.603Z,8.25
2023-02-19T20:17:49.678Z,10.82
2023-02-19T20:20:51.744Z,7.03
2023-02-19T20:23:53.733Z,5.38
2023-02-19T20:26:59.526Z,4.87
2023-02-19T20:30:01.596Z,4.18
2023-02-19T20:33:03.691Z,3.25
2023-02-19T20:36:05.956Z,3.10
2023-02-19T20:39:08.119Z,4.18
2023-02-19T20:42:10.125Z,2.83
2023-02-19T20:45:12.225Z,4.68
2023-02-19T20:48:15.019Z,5.05
2023-02-19T20:51:17.015Z,5.88
2023-02-19T20:54:20.146Z,5.85
2023-02-19T20:57:22.778Z,8.33
2023-02-19T21:00:24.844Z,6.82
2023-02-19T21:03:26.862Z,4.18
2023-02-19T21:06:28.876Z,5.23
2023-02-19T21:09:30.874Z,3.30
2023-02-19T21:12:33.723Z,3.80
2023-02-19T21:15:35.940Z,3.72
2023-02-19T21:18:39.080Z,4.72
2023-02-19T21:21:41.141Z,4.97
2023-02-19T21:24:43.168Z,3.45
2023-02-19T21:27:45.239Z,4.23
2023-02-19T21:30:47.226Z,3.15
2023-02-19T21:33:49.339Z,3.60
2023-02-19T21:36:51.456Z,3.90
2023-02-19T21:39:54.871Z,5.03
2023-02-19T21:42:56.940Z,3.08
2023-02-19T21:45:58.948Z,3.97
2023-02-19T21:49:01.443Z,5.05
2023-02-19T21:52:03.434Z,5.60
2023-02-19T21:55:05.645Z,3.25
2023-02-19T21:58:07.781Z,3.10
2023-02-19T22:01:09.770Z,1.60
2023-02-19T22:04:15.940Z,2.28
2023-02-19T22:07:17.880Z,1.70
2023-02-19T22:10:20.701Z,3.60
2023-02-19T22:13:22.769Z,2.33
2023-02-19T22:16:24.869Z,4.72
2023-02-19T22:19:26.908Z,2.45
2023-02-19T22:22:28.875Z,2.55
2023-02-19T22:25:30.853Z,3.05
2023-02-19T22:28:32.910Z,1.60
2023-02-19T22:31:35.290Z,1.90
2023-02-19T22:34:41.916Z,2.15
2023-02-19T22:37:44.012Z,1.30
2023-02-19T22:40:46.062Z,2.47
2023-02-19T22:43:48.455Z,2.17
2023-02-19T22:46:51.529Z,2.10
2023-02-19T22:49:53.549Z,2.90
2023-02-19T22:52:55.639Z,3.30
2023-02-19T22:55:57.668Z,2.63
2023-02-19T22:58:59.646Z,2.47
2023-02-19T23:02:01.715Z,1.98
2023-02-19T23:05:03.722Z,1.63
2023-02-19T23:08:05.695Z,2.47
2023-02-19T23:11:07.884Z,1.65
2023-02-19T23:14:09.913Z,3.30
2023-02-19T23:17:11.924Z,4.05
2023-02-19T23:20:14.037Z,2.58
2023-02-19T23:23:16.114Z,2.25
2023-02-19T23:26:18.644Z,2.55
2023-02-19T23:29:23.802Z,1.97
2023-02-19T23:32:26.954Z,3.88
2023-02-19T23:35:28.980Z,1.30
2023-02-19T23:38:31.005Z,1.60
2023-02-19T23:41:33.026Z,2.35
2023-02-19T23:44:34.980Z,2.70
2023-02-19T23:47:36.988Z,3.50
2023-02-19T23:50:39.023Z,1.55
2023-02-19T23:53:41.063Z,2.40
2023-02-19T23:56:43.107Z,2.88
2023-02-19T23:59:47.341Z,1.10
